Aérodrome :
LOGIN :

S'inscrire | Disclaimer

   EN    FR    IT 

 










Légende :    VFR   VFR Marginal   IFR   IFR Intensif   IFR Très Intensif
Visi : 
Plafond : 
>= 8 km
>= 3000ft
5 à 8 km
1000 à 3000 ft
1500m à 5 km
500 à 1000 ft
800 à 1500m
200 à 500 ft
< 800m
< 200 ft
Symboles :   Orages  Brouillard  Fortes neiges  Fortes précipitations  Vent > 20 kt
SIGMETs :   Divers  Orages  Givrage  Turbulence  Onde Orograph.  Cendres Volcan.







- Altitude de l'aérodrome : 74 ft
- Code IATA : MRS
- Voir les cartes d'approche


LFML - Marseille / Marignane

DERNIER METAR :
  • 251400Z AUTO 13015KT CAVOK 18/04 Q1010 TEMPO 14018G28KT

METARs EXPIRÉS :
  • 251330Z AUTO 14016KT CAVOK 19/04 Q1010 TEMPO 14018G28KT
  • 251300Z AUTO 14014KT CAVOK 19/03 Q1010 TEMPO 14018G28KT
  • 251230Z AUTO 14016KT CAVOK 19/04 Q1011 TEMPO 14018G28KT
  • 251200Z AUTO 15015KT CAVOK 19/05 Q1011 TEMPO 14018G28KT
  • 251130Z AUTO 15013KT 120V190 CAVOK 19/06 Q1012 TEMPO 14018G28KT

TAF AMD TAF LFML
Valide du 25 à 10h jusqu'au 26 à 15h UTC


251024Z 2510/2615 16015KT 9999 FEW020 SCT130 BKN230
TEMPO 2512/2524 14018G28KT
PROB40
TEMPO 2521/2524 SCT020
BECMG 2600/2602 BKN020
TEMPO 2601/2604 3000 RA SCT008 OVC016TCU
BECMG 2602/2604 26010KT
BECMG 2610/2612 31006KT SCT015
BECMG 2613/2615 CAVOK TX21/2512Z TN13/2605Z
ATIS : +33 4 42 31 15 15
Pas de NOTAMs connus pour ce terrain.



MET'MAP, la Météo Aéronautique d'un coup d'oeil ! - Copyright ORBIFLY Décembre 2007 - Disclaimer

ORBIFLY MET'MAP TEAM :

Programmation & Développement : Alexandra Zaïnal
Conception & Développement : Baudouin d'Aumeries
Co-Programmation & Développement : Marc-Olivier Méhu
Soutien technique & logistique : Manuel Goepfert

Contact : metmap@orbifly.com




SOURCES & CREDITS :

   NOAA